This is the latest recevied weather packets stored in our database for station/object W1RCY. If no packets are shown the sender has not sent any weather packets the latest 10 day(s).
| Time | Temp. | Humidity | Pressure | Rain* | Wind** | Luminosity | Snow |
|---|---|---|---|---|---|---|---|
| 1777333435 | 15.56° C | 49% | 1022.3 hPa | 0 mm | - | 1 W/m² | - |
| 1777333133 | 15.56° C | 49% | 1022.4 hPa | 0 mm | - | 2 W/m² | - |
| 1777332830 | 16.11° C | 48% | 1022.3 hPa | 0 mm | - | 5 W/m² | - |
| 1777332527 | 16.11° C | 48% | 1022.3 hPa | 0 mm | - | 7 W/m² | - |
| 1777332219 | 16.67° C | 48% | 1022.2 hPa | 0 mm | - | 11 W/m² | - |
| 1777331916 | 16.67° C | 47% | 1022.2 hPa | 0 mm | - | 13 W/m² | - |
| 1777331613 | 16.67° C | 46% | 1022.3 hPa | 0 mm | - | 17 W/m² | - |
| 1777331310 | 17.22° C | 46% | 1022.1 hPa | 0 mm | - | 19 W/m² | - |
| 1777331007 | 17.22° C | 45% | 1022 hPa | 0 mm | - | 22 W/m² | - |
| 1777330704 | 17.22° C | 45% | 1022.2 hPa | 0 mm | - | 25 W/m² | - |
| 1777330401 | 17.78° C | 45% | 1022 hPa | 0 mm | - | 28 W/m² | - |
| 1777330099 | 17.78° C | 45% | 1022 hPa | 0 mm | - | 30 W/m² | - |
| 1777329798 | 17.78° C | 45% | 1022.1 hPa | 0 mm | - | 32 W/m² | - |
| 1777329496 | 17.78° C | 44% | 1022.3 hPa | 0 mm | - | 34 W/m² | - |
| 1777329193 | 18.33° C | 43% | 1022.1 hPa | 0 mm | - | 36 W/m² | - |
| 1777328890 | 18.33° C | 43% | 1021.9 hPa | 0 mm | - | 39 W/m² | - |
| 1777328588 | 18.33° C | 42% | 1022.1 hPa | 0 mm | - | 45 W/m² | - |
| 1777328286 | 18.89° C | 41% | 1022.3 hPa | 0 mm | - | 59 W/m² | - |
| 1777327984 | 18.89° C | 40% | 1022.3 hPa | 0 mm | - | 48 W/m² | - |
| 1777327683 | 18.89° C | 40% | 1022.1 hPa | 0 mm | - | 69 W/m² | - |
| 1777327379 | 18.89° C | 40% | 1022.2 hPa | 0 mm | - | 69 W/m² | - |
| 1777327076 | 19.44° C | 40% | 1022.4 hPa | 0 mm | - | 47 W/m² | - |
| 1777326773 | 20° C | 41% | 1022.3 hPa | 0 mm | - | 61 W/m² | - |
| 1777326470 | 18.89° C | 41% | 1022.3 hPa | 0 mm | - | 85 W/m² | - |
| 1777326168 | 20° C | 39% | 1022.3 hPa | 0 mm | - | 56 W/m² | - |
* Rain latest hour (hover to see other rain measurements)
** Current wind speed in m/s (hover to see current wind gust speed)